sensor_id;sensor_type;location;lat;lon;timestamp;pressure;altitude;pressure_sealevel;temperature;humidity
55755;BME280;41674;52.290;-1.474;2022-12-16T00:01:05;100991.40;;;-3.31;61.79
55755;BME280;41674;52.290;-1.474;2022-12-16T00:03:30;100990.56;;;-3.06;61.33
55755;BME280;41674;52.290;-1.474;2022-12-16T00:05:59;100994.68;;;-2.56;60.77
55755;BME280;41674;52.290;-1.474;2022-12-16T00:08:28;100995.13;;;-2.83;60.02
55755;BME280;41674;52.290;-1.474;2022-12-16T00:10:58;100994.65;;;-2.61;59.19
55755;BME280;41674;52.290;-1.474;2022-12-16T00:15:56;100986.07;;;-2.93;58.39
55755;BME280;41674;52.290;-1.474;2022-12-16T00:18:26;100987.55;;;-3.28;59.36
55755;BME280;41674;52.290;-1.474;2022-12-16T00:20:56;100989.55;;;-3.29;59.36
55755;BME280;41674;52.290;-1.474;2022-12-16T00:23:26;100990.63;;;-3.80;59.75
55755;BME280;41674;52.290;-1.474;2022-12-16T00:25:54;100990.55;;;-3.75;60.20
55755;BME280;41674;52.290;-1.474;2022-12-16T00:28:24;100992.05;;;-3.53;59.99
55755;BME280;41674;52.290;-1.474;2022-12-16T00:30:54;100994.63;;;-3.92;61.05
55755;BME280;41674;52.290;-1.474;2022-12-16T00:33:25;100998.16;;;-3.73;59.94
55755;BME280;41674;52.290;-1.474;2022-12-16T00:35:53;101002.79;;;-3.64;60.73
55755;BME280;41674;52.290;-1.474;2022-12-16T00:38:24;101007.67;;;-4.17;60.81
55755;BME280;41674;52.290;-1.474;2022-12-16T00:40:51;101012.15;;;-4.34;61.58
55755;BME280;41674;52.290;-1.474;2022-12-16T00:43:20;101010.31;;;-4.34;61.79
55755;BME280;41674;52.290;-1.474;2022-12-16T00:45:49;101014.71;;;-4.41;62.17
55755;BME280;41674;52.290;-1.474;2022-12-16T00:48:18;101016.74;;;-5.09;64.63
55755;BME280;41674;52.290;-1.474;2022-12-16T00:50:50;101014.62;;;-4.47;63.51
55755;BME280;41674;52.290;-1.474;2022-12-16T00:53:17;101012.25;;;-4.01;63.38
55755;BME280;41674;52.290;-1.474;2022-12-16T00:55:47;101011.93;;;-3.80;62.75
55755;BME280;41674;52.290;-1.474;2022-12-16T00:58:16;101015.56;;;-4.38;62.84
55755;BME280;41674;52.290;-1.474;2022-12-16T01:00:46;101018.19;;;-4.11;62.60
55755;BME280;41674;52.290;-1.474;2022-12-16T01:03:16;101020.22;;;-4.21;62.44
55755;BME280;41674;52.290;-1.474;2022-12-16T01:05:45;101021.00;;;-4.13;62.34
55755;BME280;41674;52.290;-1.474;2022-12-16T01:08:14;101021.16;;;-4.74;62.66
55755;BME280;41674;52.290;-1.474;2022-12-16T01:10:49;101016.22;;;-4.85;63.52
55755;BME280;41674;52.290;-1.474;2022-12-16T01:13:13;101019.59;;;-4.53;63.71
55755;BME280;41674;52.290;-1.474;2022-12-16T01:15:43;101017.76;;;-4.38;62.16
55755;BME280;41674;52.290;-1.474;2022-12-16T01:18:13;101016.69;;;-4.33;61.58
55755;BME280;41674;52.290;-1.474;2022-12-16T01:20:47;101015.03;;;-4.50;62.48
55755;BME280;41674;52.290;-1.474;2022-12-16T01:23:12;101015.38;;;-4.39;62.64
55755;BME280;41674;52.290;-1.474;2022-12-16T01:25:42;101017.73;;;-4.46;61.93
55755;BME280;41674;52.290;-1.474;2022-12-16T01:28:11;101018.73;;;-4.64;61.53
55755;BME280;41674;52.290;-1.474;2022-12-16T01:30:40;101017.95;;;-4.75;61.70
55755;BME280;41674;52.290;-1.474;2022-12-16T01:33:10;101022.59;;;-4.14;61.46
55755;BME280;41674;52.290;-1.474;2022-12-16T01:35:39;101024.39;;;-4.20;61.45
55755;BME280;41674;52.290;-1.474;2022-12-16T01:38:09;101026.58;;;-4.35;61.75
55755;BME280;41674;52.290;-1.474;2022-12-16T01:40:37;101030.68;;;-5.40;63.25
55755;BME280;41674;52.290;-1.474;2022-12-16T01:43:10;101035.63;;;-5.55;63.51
55755;BME280;41674;52.290;-1.474;2022-12-16T01:45:36;101036.05;;;-5.60;63.42
55755;BME280;41674;52.290;-1.474;2022-12-16T01:48:13;101052.49;;;-4.96;63.77
55755;BME280;41674;52.290;-1.474;2022-12-16T01:50:36;101054.47;;;-4.94;62.42
55755;BME280;41674;52.290;-1.474;2022-12-16T01:53:04;101053.72;;;-4.95;63.81
55755;BME280;41674;52.290;-1.474;2022-12-16T01:55:37;101058.74;;;-5.16;63.62
55755;BME280;41674;52.290;-1.474;2022-12-16T01:58:06;101061.81;;;-5.06;64.12
55755;BME280;41674;52.290;-1.474;2022-12-16T02:00:33;101066.78;;;-4.96;63.96
55755;BME280;41674;52.290;-1.474;2022-12-16T02:03:01;101070.17;;;-4.48;63.14
55755;BME280;41674;52.290;-1.474;2022-12-16T02:05:31;101074.34;;;-4.82;63.11
55755;BME280;41674;52.290;-1.474;2022-12-16T02:08:05;101076.56;;;-4.54;62.07
55755;BME280;41674;52.290;-1.474;2022-12-16T02:10:38;101073.42;;;-5.24;63.36
55755;BME280;41674;52.290;-1.474;2022-12-16T02:13:03;101067.63;;;-4.62;62.75
55755;BME280;41674;52.290;-1.474;2022-12-16T02:15:37;101065.11;;;-5.42;63.30
55755;BME280;41674;52.290;-1.474;2022-12-16T02:18:04;101069.53;;;-5.17;63.14
55755;BME280;41674;52.290;-1.474;2022-12-16T02:23:12;101073.55;;;-5.22;63.24
55755;BME280;41674;52.290;-1.474;2022-12-16T02:25:38;101077.97;;;-4.34;61.91
55755;BME280;41674;52.290;-1.474;2022-12-16T02:28:01;101081.25;;;-4.76;61.63
55755;BME280;41674;52.290;-1.474;2022-12-16T02:33:01;101082.83;;;-4.71;61.04
55755;BME280;41674;52.290;-1.474;2022-12-16T02:35:28;101087.07;;;-4.64;61.16
55755;BME280;41674;52.290;-1.474;2022-12-16T02:38:01;101091.57;;;-4.70;61.99
55755;BME280;41674;52.290;-1.474;2022-12-16T02:40:30;101091.46;;;-4.45;61.54
55755;BME280;41674;52.290;-1.474;2022-12-16T02:42:55;101092.41;;;-4.47;61.45
55755;BME280;41674;52.290;-1.474;2022-12-16T02:45:26;101092.31;;;-4.64;62.04
55755;BME280;41674;52.290;-1.474;2022-12-16T02:47:52;101085.42;;;-4.94;62.97
55755;BME280;41674;52.290;-1.474;2022-12-16T02:50:26;101081.63;;;-4.59;61.81
55755;BME280;41674;52.290;-1.474;2022-12-16T02:52:53;101079.41;;;-4.45;61.43
55755;BME280;41674;52.290;-1.474;2022-12-16T02:55:22;101079.41;;;-4.46;61.63
55755;BME280;41674;52.290;-1.474;2022-12-16T02:58:00;101080.57;;;-4.46;61.34
55755;BME280;41674;52.290;-1.474;2022-12-16T03:00:22;101081.94;;;-4.62;61.28
55755;BME280;41674;52.290;-1.474;2022-12-16T03:02:54;101078.78;;;-4.49;61.85
55755;BME280;41674;52.290;-1.474;2022-12-16T03:05:21;101080.72;;;-4.33;61.58
55755;BME280;41674;52.290;-1.474;2022-12-16T03:07:49;101083.84;;;-4.37;61.50
55755;BME280;41674;52.290;-1.474;2022-12-16T03:10:20;101084.64;;;-4.48;61.79
55755;BME280;41674;52.290;-1.474;2022-12-16T03:12:46;101085.12;;;-4.81;62.02
55755;BME280;41674;52.290;-1.474;2022-12-16T03:15:19;101086.12;;;-4.35;61.46
55755;BME280;41674;52.290;-1.474;2022-12-16T03:17:47;101085.27;;;-4.58;61.37
55755;BME280;41674;52.290;-1.474;2022-12-16T03:20:18;101085.76;;;-4.80;61.93
55755;BME280;41674;52.290;-1.474;2022-12-16T03:22:47;101087.43;;;-4.84;61.85
55755;BME280;41674;52.290;-1.474;2022-12-16T03:25:14;101090.18;;;-5.83;63.95
55755;BME280;41674;52.290;-1.474;2022-12-16T03:27:48;101090.86;;;-4.98;61.90
55755;BME280;41674;52.290;-1.474;2022-12-16T03:30:21;101093.14;;;-4.87;61.26
55755;BME280;41674;52.290;-1.474;2022-12-16T03:32:47;101091.81;;;-4.92;61.38
55755;BME280;41674;52.290;-1.474;2022-12-16T03:35:14;101090.04;;;-5.19;62.17
55755;BME280;41674;52.290;-1.474;2022-12-16T03:37:43;101089.15;;;-5.11;61.47
55755;BME280;41674;52.290;-1.474;2022-12-16T03:40:12;101084.71;;;-5.18;61.79
55755;BME280;41674;52.290;-1.474;2022-12-16T03:42:42;101086.26;;;-5.37;62.30
55755;BME280;41674;52.290;-1.474;2022-12-16T03:45:13;101087.50;;;-5.51;62.82
55755;BME280;41674;52.290;-1.474;2022-12-16T03:47:40;101090.87;;;-5.50;61.99
55755;BME280;41674;52.290;-1.474;2022-12-16T03:50:09;101089.32;;;-4.99;60.52
55755;BME280;41674;52.290;-1.474;2022-12-16T03:52:38;101089.42;;;-5.63;62.68
55755;BME280;41674;52.290;-1.474;2022-12-16T03:55:08;101088.15;;;-5.65;62.02
55755;BME280;41674;52.290;-1.474;2022-12-16T03:57:38;101092.01;;;-5.41;62.36
55755;BME280;41674;52.290;-1.474;2022-12-16T04:00:08;101095.91;;;-5.18;61.46
55755;BME280;41674;52.290;-1.474;2022-12-16T04:02:36;101094.23;;;-5.12;61.45
55755;BME280;41674;52.290;-1.474;2022-12-16T04:05:06;101092.77;;;-5.30;61.96
55755;BME280;41674;52.290;-1.474;2022-12-16T04:07:35;101095.41;;;-5.71;63.08
55755;BME280;41674;52.290;-1.474;2022-12-16T04:10:06;101094.56;;;-5.57;62.49
55755;BME280;41674;52.290;-1.474;2022-12-16T04:12:34;101096.79;;;-5.26;61.71
55755;BME280;41674;52.290;-1.474;2022-12-16T04:15:05;101099.04;;;-5.35;61.90
55755;BME280;41674;52.290;-1.474;2022-12-16T04:17:33;101101.45;;;-5.15;61.11
55755;BME280;41674;52.290;-1.474;2022-12-16T04:20:03;101106.05;;;-5.40;62.33
55755;BME280;41674;52.290;-1.474;2022-12-16T04:22:34;101106.32;;;-5.40;61.13
55755;BME280;41674;52.290;-1.474;2022-12-16T04:25:06;101110.48;;;-5.65;62.17
55755;BME280;41674;52.290;-1.474;2022-12-16T04:27:31;101112.54;;;-5.85;62.51
55755;BME280;41674;52.290;-1.474;2022-12-16T04:30:00;101110.72;;;-5.56;61.46
55755;BME280;41674;52.290;-1.474;2022-12-16T04:32:30;101114.22;;;-5.95;62.48
55755;BME280;41674;52.290;-1.474;2022-12-16T04:34:58;101109.12;;;-5.56;62.46
55755;BME280;41674;52.290;-1.474;2022-12-16T04:37:28;101106.74;;;-5.39;61.24
55755;BME280;41674;52.290;-1.474;2022-12-16T04:39:57;101106.89;;;-5.41;62.03
55755;BME280;41674;52.290;-1.474;2022-12-16T04:42:27;101112.25;;;-5.68;61.62
55755;BME280;41674;52.290;-1.474;2022-12-16T04:44:56;101118.78;;;-6.03;62.07
55755;BME280;41674;52.290;-1.474;2022-12-16T04:47:26;101119.11;;;-5.68;61.44
55755;BME280;41674;52.290;-1.474;2022-12-16T04:49:55;101118.90;;;-5.88;63.03
55755;BME280;41674;52.290;-1.474;2022-12-16T04:52:24;101121.37;;;-5.36;61.38
55755;BME280;41674;52.290;-1.474;2022-12-16T04:54:54;101128.71;;;-5.52;61.60
55755;BME280;41674;52.290;-1.474;2022-12-16T04:57:23;101130.09;;;-6.23;62.64
55755;BME280;41674;52.290;-1.474;2022-12-16T04:59:53;101129.95;;;-6.00;62.11
55755;BME280;41674;52.290;-1.474;2022-12-16T05:02:23;101127.24;;;-5.31;60.11
55755;BME280;41674;52.290;-1.474;2022-12-16T05:04:52;101128.64;;;-5.20;60.23
55755;BME280;41674;52.290;-1.474;2022-12-16T05:07:22;101132.24;;;-6.09;62.01
55755;BME280;41674;52.290;-1.474;2022-12-16T05:09:52;101132.67;;;-5.51;61.18
55755;BME280;41674;52.290;-1.474;2022-12-16T05:12:21;101132.79;;;-5.47;60.45
55755;BME280;41674;52.290;-1.474;2022-12-16T05:14:51;101132.52;;;-5.90;61.43
55755;BME280;41674;52.290;-1.474;2022-12-16T05:17:20;101131.59;;;-5.66;60.59
55755;BME280;41674;52.290;-1.474;2022-12-16T05:19:49;101131.85;;;-5.93;61.60
55755;BME280;41674;52.290;-1.474;2022-12-16T05:22:18;101131.31;;;-5.82;61.05
55755;BME280;41674;52.290;-1.474;2022-12-16T05:24:48;101126.52;;;-5.45;60.17
55755;BME280;41674;52.290;-1.474;2022-12-16T05:27:17;101126.28;;;-5.55;60.40
55755;BME280;41674;52.290;-1.474;2022-12-16T05:29:47;101123.62;;;-5.61;60.76
55755;BME280;41674;52.290;-1.474;2022-12-16T05:32:16;101116.15;;;-6.14;61.13
55755;BME280;41674;52.290;-1.474;2022-12-16T05:34:46;101116.12;;;-6.08;61.81
55755;BME280;41674;52.290;-1.474;2022-12-16T05:37:15;101115.75;;;-5.86;61.10
55755;BME280;41674;52.290;-1.474;2022-12-16T05:39:45;101121.57;;;-5.74;60.98
55755;BME280;41674;52.290;-1.474;2022-12-16T05:42:15;101128.78;;;-6.75;62.70
55755;BME280;41674;52.290;-1.474;2022-12-16T05:44:44;101127.85;;;-6.15;61.99
55755;BME280;41674;52.290;-1.474;2022-12-16T05:47:13;101134.05;;;-6.56;63.06
55755;BME280;41674;52.290;-1.474;2022-12-16T05:49:43;101133.79;;;-6.66;62.40
55755;BME280;41674;52.290;-1.474;2022-12-16T05:52:12;101134.04;;;-6.12;61.64
55755;BME280;41674;52.290;-1.474;2022-12-16T05:54:42;101136.28;;;-5.79;61.07
55755;BME280;41674;52.290;-1.474;2022-12-16T05:57:11;101142.53;;;-5.86;61.06
55755;BME280;41674;52.290;-1.474;2022-12-16T05:59:40;101147.61;;;-6.43;62.20
55755;BME280;41674;52.290;-1.474;2022-12-16T06:02:09;101145.72;;;-5.78;60.60
55755;BME280;41674;52.290;-1.474;2022-12-16T06:04:40;101145.65;;;-6.11;61.24
55755;BME280;41674;52.290;-1.474;2022-12-16T06:07:09;101143.99;;;-6.40;61.90
55755;BME280;41674;52.290;-1.474;2022-12-16T06:09:38;101144.04;;;-6.09;60.63
55755;BME280;41674;52.290;-1.474;2022-12-16T06:12:08;101145.84;;;-5.50;59.71
55755;BME280;41674;52.290;-1.474;2022-12-16T06:14:38;101140.26;;;-5.35;58.47
55755;BME280;41674;52.290;-1.474;2022-12-16T06:17:07;101138.12;;;-5.28;59.31
55755;BME280;41674;52.290;-1.474;2022-12-16T06:19:37;101138.36;;;-5.07;58.82
55755;BME280;41674;52.290;-1.474;2022-12-16T06:22:06;101140.13;;;-4.83;58.19
55755;BME280;41674;52.290;-1.474;2022-12-16T06:24:35;101142.17;;;-5.55;57.62
55755;BME280;41674;52.290;-1.474;2022-12-16T06:27:05;101141.79;;;-4.84;57.39
55755;BME280;41674;52.290;-1.474;2022-12-16T06:29:34;101142.73;;;-5.46;61.12
55755;BME280;41674;52.290;-1.474;2022-12-16T06:32:04;101142.52;;;-5.16;59.47
55755;BME280;41674;52.290;-1.474;2022-12-16T06:34:34;101143.96;;;-4.81;59.06
55755;BME280;41674;52.290;-1.474;2022-12-16T06:37:03;101150.51;;;-4.63;58.47
55755;BME280;41674;52.290;-1.474;2022-12-16T06:39:33;101154.94;;;-5.20;59.46
55755;BME280;41674;52.290;-1.474;2022-12-16T06:42:02;101163.95;;;-4.98;58.44
55755;BME280;41674;52.290;-1.474;2022-12-16T06:44:37;101167.69;;;-5.30;58.71
55755;BME280;41674;52.290;-1.474;2022-12-16T06:47:01;101168.31;;;-5.59;58.23
55755;BME280;41674;52.290;-1.474;2022-12-16T06:49:30;101165.21;;;-5.50;57.99
55755;BME280;41674;52.290;-1.474;2022-12-16T06:51:59;101163.63;;;-4.96;57.57
55755;BME280;41674;52.290;-1.474;2022-12-16T06:54:29;101165.57;;;-5.09;57.62
55755;BME280;41674;52.290;-1.474;2022-12-16T06:56:59;101167.68;;;-5.12;58.80
55755;BME280;41674;52.290;-1.474;2022-12-16T06:59:28;101170.04;;;-6.29;60.90
55755;BME280;41674;52.290;-1.474;2022-12-16T07:01:57;101166.97;;;-5.79;60.12
55755;BME280;41674;52.290;-1.474;2022-12-16T07:04:27;101168.29;;;-5.54;59.27
55755;BME280;41674;52.290;-1.474;2022-12-16T07:06:56;101167.99;;;-5.77;60.14
55755;BME280;41674;52.290;-1.474;2022-12-16T07:09:25;101168.89;;;-6.15;60.47
55755;BME280;41674;52.290;-1.474;2022-12-16T07:11:55;101171.24;;;-6.79;62.26
55755;BME280;41674;52.290;-1.474;2022-12-16T07:14:24;101176.27;;;-6.37;61.11
55755;BME280;41674;52.290;-1.474;2022-12-16T07:16:54;101182.00;;;-6.08;60.55
55755;BME280;41674;52.290;-1.474;2022-12-16T07:19:24;101187.74;;;-6.30;61.20
55755;BME280;41674;52.290;-1.474;2022-12-16T07:21:53;101187.32;;;-5.97;60.09
55755;BME280;41674;52.290;-1.474;2022-12-16T07:24:22;101184.92;;;-6.15;60.47
55755;BME280;41674;52.290;-1.474;2022-12-16T07:26:52;101183.75;;;-5.92;60.63
55755;BME280;41674;52.290;-1.474;2022-12-16T07:29:22;101183.46;;;-6.46;61.79
55755;BME280;41674;52.290;-1.474;2022-12-16T07:31:52;101184.91;;;-6.51;61.25
55755;BME280;41674;52.290;-1.474;2022-12-16T07:34:21;101188.83;;;-6.89;62.33
55755;BME280;41674;52.290;-1.474;2022-12-16T07:36:50;101184.73;;;-6.88;62.00
55755;BME280;41674;52.290;-1.474;2022-12-16T07:39:19;101183.41;;;-6.88;61.74
55755;BME280;41674;52.290;-1.474;2022-12-16T07:41:49;101185.96;;;-6.24;61.23
55755;BME280;41674;52.290;-1.474;2022-12-16T07:44:19;101182.07;;;-6.26;62.23
55755;BME280;41674;52.290;-1.474;2022-12-16T07:46:48;101187.43;;;-6.86;62.15
55755;BME280;41674;52.290;-1.474;2022-12-16T07:49:17;101187.13;;;-6.33;61.20
55755;BME280;41674;52.290;-1.474;2022-12-16T07:51:47;101188.79;;;-6.69;61.32
55755;BME280;41674;52.290;-1.474;2022-12-16T07:54:17;101192.94;;;-6.54;61.06
55755;BME280;41674;52.290;-1.474;2022-12-16T07:56:51;101195.09;;;-6.12;60.87
55755;BME280;41674;52.290;-1.474;2022-12-16T07:59:16;101198.46;;;-6.37;61.26
55755;BME280;41674;52.290;-1.474;2022-12-16T08:01:45;101199.44;;;-6.35;61.02
55755;BME280;41674;52.290;-1.474;2022-12-16T08:04:25;101201.84;;;-5.82;59.64
55755;BME280;41674;52.290;-1.474;2022-12-16T08:06:44;101206.36;;;-5.67;58.93
55755;BME280;41674;52.290;-1.474;2022-12-16T08:09:13;101207.11;;;-5.40;58.70
55755;BME280;41674;52.290;-1.474;2022-12-16T08:11:48;101209.20;;;-5.52;58.67
55755;BME280;41674;52.290;-1.474;2022-12-16T08:14:12;101211.74;;;-5.08;57.71
55755;BME280;41674;52.290;-1.474;2022-12-16T08:16:42;101214.45;;;-5.50;57.76
55755;BME280;41674;52.290;-1.474;2022-12-16T08:19:11;101217.80;;;-5.38;57.96
55755;BME280;41674;52.290;-1.474;2022-12-16T08:21:41;101227.44;;;-5.52;58.35
55755;BME280;41674;52.290;-1.474;2022-12-16T08:24:10;101232.68;;;-5.35;58.46
55755;BME280;41674;52.290;-1.474;2022-12-16T08:26:40;101234.90;;;-5.10;59.40
55755;BME280;41674;52.290;-1.474;2022-12-16T08:29:09;101240.92;;;-5.87;60.08
55755;BME280;41674;52.290;-1.474;2022-12-16T08:31:38;101244.39;;;-5.65;60.27
55755;BME280;41674;52.290;-1.474;2022-12-16T08:34:08;101245.54;;;-6.30;61.94
55755;BME280;41674;52.290;-1.474;2022-12-16T08:39:07;101246.47;;;-5.60;60.56
55755;BME280;41674;52.290;-1.474;2022-12-16T08:41:37;101245.03;;;-5.35;60.39
55755;BME280;41674;52.290;-1.474;2022-12-16T08:44:06;101244.17;;;-5.56;61.49
55755;BME280;41674;52.290;-1.474;2022-12-16T08:46:40;101240.71;;;-5.62;61.59
55755;BME280;41674;52.290;-1.474;2022-12-16T08:49:05;101238.21;;;-5.56;62.54
55755;BME280;41674;52.290;-1.474;2022-12-16T08:51:39;101240.74;;;-6.11;63.71
55755;BME280;41674;52.290;-1.474;2022-12-16T08:54:04;101243.23;;;-5.77;62.94
55755;BME280;41674;52.290;-1.474;2022-12-16T08:56:33;101244.29;;;-5.50;62.53
55755;BME280;41674;52.290;-1.474;2022-12-16T08:59:02;101247.72;;;-6.01;63.69
55755;BME280;41674;52.290;-1.474;2022-12-16T09:01:31;101251.79;;;-6.43;64.84
55755;BME280;41674;52.290;-1.474;2022-12-16T09:04:05;101257.09;;;-6.47;65.93
55755;BME280;41674;52.290;-1.474;2022-12-16T09:06:30;101256.12;;;-5.73;63.37
55755;BME280;41674;52.290;-1.474;2022-12-16T09:09:00;101253.49;;;-5.62;63.18
55755;BME280;41674;52.290;-1.474;2022-12-16T09:11:30;101255.26;;;-6.08;64.17
55755;BME280;41674;52.290;-1.474;2022-12-16T09:13:59;101257.28;;;-5.88;63.29
55755;BME280;41674;52.290;-1.474;2022-12-16T09:16:27;101260.76;;;-5.53;63.12
55755;BME280;41674;52.290;-1.474;2022-12-16T09:18:57;101267.01;;;-5.47;62.98
55755;BME280;41674;52.290;-1.474;2022-12-16T09:21:28;101267.80;;;-5.59;62.79
55755;BME280;41674;52.290;-1.474;2022-12-16T09:23:56;101267.38;;;-5.23;62.21
55755;BME280;41674;52.290;-1.474;2022-12-16T09:26:32;101271.60;;;-5.70;64.00
55755;BME280;41674;52.290;-1.474;2022-12-16T09:29:00;101272.77;;;-6.17;65.95
55755;BME280;41674;52.290;-1.474;2022-12-16T09:31:24;101271.85;;;-5.83;65.35
55755;BME280;41674;52.290;-1.474;2022-12-16T09:33:53;101274.00;;;-5.29;63.72
55755;BME280;41674;52.290;-1.474;2022-12-16T09:36:23;101277.68;;;-5.44;63.58
55755;BME280;41674;52.290;-1.474;2022-12-16T09:38:52;101276.78;;;-5.21;64.16
55755;BME280;41674;52.290;-1.474;2022-12-16T09:41:32;101276.54;;;-5.00;63.91
55755;BME280;41674;52.290;-1.474;2022-12-16T09:43:59;101276.01;;;-6.53;67.80
55755;BME280;41674;52.290;-1.474;2022-12-16T09:46:31;101279.09;;;-5.14;64.47
55755;BME280;41674;52.290;-1.474;2022-12-16T09:48:56;101280.73;;;-4.91;64.09
55755;BME280;41674;52.290;-1.474;2022-12-16T09:51:20;101283.73;;;-4.76;63.70
55755;BME280;41674;52.290;-1.474;2022-12-16T09:53:51;101283.89;;;-5.62;66.33
55755;BME280;41674;52.290;-1.474;2022-12-16T09:56:29;101289.13;;;-4.49;65.06
55755;BME280;41674;52.290;-1.474;2022-12-16T09:58:52;101286.14;;;-4.31;64.41
55755;BME280;41674;52.290;-1.474;2022-12-16T10:01:18;101284.81;;;-4.43;64.48
55755;BME280;41674;52.290;-1.474;2022-12-16T10:03:47;101285.61;;;-3.90;63.80
55755;BME280;41674;52.290;-1.474;2022-12-16T10:06:26;101283.84;;;-3.70;63.23
55755;BME280;41674;52.290;-1.474;2022-12-16T10:08:51;101282.32;;;-3.42;62.93
55755;BME280;41674;52.290;-1.474;2022-12-16T10:11:19;101286.42;;;-3.27;62.77
55755;BME280;41674;52.290;-1.474;2022-12-16T10:13:50;101289.46;;;-3.33;62.56
55755;BME280;41674;52.290;-1.474;2022-12-16T10:16:18;101293.96;;;-3.13;62.38
55755;BME280;41674;52.290;-1.474;2022-12-16T10:18:50;101297.15;;;-3.13;63.22
55755;BME280;41674;52.290;-1.474;2022-12-16T10:21:17;101296.32;;;-3.21;64.68
55755;BME280;41674;52.290;-1.474;2022-12-16T10:23:46;101297.05;;;-2.69;64.90
55755;BME280;41674;52.290;-1.474;2022-12-16T10:26:21;101296.09;;;-3.22;66.97
55755;BME280;41674;52.290;-1.474;2022-12-16T10:28:45;101300.29;;;-3.33;67.85
55755;BME280;41674;52.290;-1.474;2022-12-16T10:31:13;101300.00;;;-3.55;68.95
55755;BME280;41674;52.290;-1.474;2022-12-16T10:36:15;101296.74;;;-3.33;70.87
55755;BME280;41674;52.290;-1.474;2022-12-16T10:38:43;101299.01;;;-3.27;72.22
55755;BME280;41674;52.290;-1.474;2022-12-16T10:41:11;101298.59;;;-3.25;73.61
55755;BME280;41674;52.290;-1.474;2022-12-16T10:43:45;101301.16;;;-3.07;74.35
55755;BME280;41674;52.290;-1.474;2022-12-16T10:46:19;101300.50;;;-2.70;73.92
55755;BME280;41674;52.290;-1.474;2022-12-16T10:48:39;101294.96;;;-3.70;76.78
55755;BME280;41674;52.290;-1.474;2022-12-16T10:51:16;101296.53;;;-3.22;76.89
55755;BME280;41674;52.290;-1.474;2022-12-16T10:56:21;101297.04;;;-3.73;81.73
55755;BME280;41674;52.290;-1.474;2022-12-16T10:58:44;101300.38;;;-4.50;83.86
55755;BME280;41674;52.290;-1.474;2022-12-16T11:01:19;101305.58;;;-3.16;80.60
55755;BME280;41674;52.290;-1.474;2022-12-16T11:03:37;101308.49;;;-2.68;78.62
55755;BME280;41674;52.290;-1.474;2022-12-16T11:06:14;101296.38;;;-2.19;76.53
55755;BME280;41674;52.290;-1.474;2022-12-16T11:08:37;101302.50;;;-3.23;79.55
55755;BME280;41674;52.290;-1.474;2022-12-16T11:11:11;101306.66;;;-2.67;80.06
55755;BME280;41674;52.290;-1.474;2022-12-16T11:13:40;101305.15;;;-3.72;84.17
55755;BME280;41674;52.290;-1.474;2022-12-16T11:16:10;101303.42;;;-3.88;85.79
55755;BME280;41674;52.290;-1.474;2022-12-16T11:18:33;101302.12;;;-4.19;86.56
55755;BME280;41674;52.290;-1.474;2022-12-16T11:21:08;101302.25;;;-3.44;85.00
55755;BME280;41674;52.290;-1.474;2022-12-16T11:23:31;101301.18;;;-2.61;81.51
55755;BME280;41674;52.290;-1.474;2022-12-16T11:26:06;101299.36;;;-2.42;83.16
55755;BME280;41674;52.290;-1.474;2022-12-16T11:28:30;101296.37;;;-2.00;81.34
55755;BME280;41674;52.290;-1.474;2022-12-16T11:31:02;101293.08;;;-2.12;82.36
55755;BME280;41674;52.290;-1.474;2022-12-16T11:33:29;101289.28;;;-1.74;81.55
55755;BME280;41674;52.290;-1.474;2022-12-16T11:36:06;101287.96;;;-1.74;83.56
55755;BME280;41674;52.290;-1.474;2022-12-16T11:38:35;101297.42;;;-2.73;86.25
55755;BME280;41674;52.290;-1.474;2022-12-16T11:41:04;101296.24;;;-2.68;86.78
55755;BME280;41674;52.290;-1.474;2022-12-16T11:43:27;101295.99;;;-3.47;88.41
55755;BME280;41674;52.290;-1.474;2022-12-16T11:45:56;101293.24;;;-2.67;87.46
55755;BME280;41674;52.290;-1.474;2022-12-16T11:48:32;101282.60;;;-1.65;85.33
55755;BME280;41674;52.290;-1.474;2022-12-16T11:50:56;101278.52;;;-0.96;82.11
55755;BME280;41674;52.290;-1.474;2022-12-16T11:53:29;101277.86;;;-0.98;80.47
55755;BME280;41674;52.290;-1.474;2022-12-16T11:55:54;101278.22;;;-0.71;78.76
55755;BME280;41674;52.290;-1.474;2022-12-16T11:58:27;101273.27;;;-0.21;77.13
55755;BME280;41674;52.290;-1.474;2022-12-16T12:00:58;101273.41;;;-0.22;76.20
55755;BME280;41674;52.290;-1.474;2022-12-16T12:03:23;101269.58;;;-0.11;76.21
55755;BME280;41674;52.290;-1.474;2022-12-16T12:05:57;101267.83;;;-0.28;76.54
55755;BME280;41674;52.290;-1.474;2022-12-16T12:08:24;101270.87;;;-0.07;76.77
55755;BME280;41674;52.290;-1.474;2022-12-16T12:11:00;101266.70;;;-1.60;79.01
55755;BME280;41674;52.290;-1.474;2022-12-16T12:13:33;101266.88;;;-1.62;81.64
55755;BME280;41674;52.290;-1.474;2022-12-16T12:15:54;101269.33;;;-1.10;80.63
55755;BME280;41674;52.290;-1.474;2022-12-16T12:18:26;101271.00;;;-1.34;82.10
55755;BME280;41674;52.290;-1.474;2022-12-16T12:20:54;101271.62;;;-1.04;80.79
55755;BME280;41674;52.290;-1.474;2022-12-16T12:23:21;101263.29;;;-0.10;79.80
55755;BME280;41674;52.290;-1.474;2022-12-16T12:25:58;101261.56;;;0.17;77.03
55755;BME280;41674;52.290;-1.474;2022-12-16T12:28:26;101266.56;;;-0.47;77.96
55755;BME280;41674;52.290;-1.474;2022-12-16T12:30:54;101261.39;;;0.54;78.56
55755;BME280;41674;52.290;-1.474;2022-12-16T12:33:30;101259.89;;;0.48;73.68
55755;BME280;41674;52.290;-1.474;2022-12-16T12:38:17;101261.93;;;0.41;71.98
55755;BME280;41674;52.290;-1.474;2022-12-16T12:40:48;101265.44;;;0.82;72.20
55755;BME280;41674;52.290;-1.474;2022-12-16T12:43:22;101260.33;;;1.68;70.51
55755;BME280;41674;52.290;-1.474;2022-12-16T12:45:49;101258.05;;;2.04;68.67
55755;BME280;41674;52.290;-1.474;2022-12-16T12:48:21;101259.42;;;2.56;65.19
55755;BME280;41674;52.290;-1.474;2022-12-16T12:50:46;101254.47;;;1.93;66.13
55755;BME280;41674;52.290;-1.474;2022-12-16T12:53:22;101258.42;;;1.97;63.84
55755;BME280;41674;52.290;-1.474;2022-12-16T12:55:42;101262.22;;;1.14;67.66
55755;BME280;41674;52.290;-1.474;2022-12-16T12:58:09;101263.62;;;1.66;69.24
55755;BME280;41674;52.290;-1.474;2022-12-16T13:00:42;101265.41;;;1.49;67.31
55755;BME280;41674;52.290;-1.474;2022-12-16T13:03:12;101261.79;;;2.24;65.06
55755;BME280;41674;52.290;-1.474;2022-12-16T13:15:35;101260.67;;;2.56;63.03
55755;BME280;41674;52.290;-1.474;2022-12-16T13:18:20;101258.12;;;2.06;64.15